joeyjoejoe Speed Test Results

        Days  
joeyjoejoe joeyjoejoe
Share Query AVG Img MAX Img AVG bbc MAX bbc iFrame
  
 
Showing results 1 to 25 of 728 for Username joeyjoejoe arrow up Only Upload    arrow down Only Download   
Time arrow down ct    arrow up arrow down   Size    Speed ConnectID Provider TID
Thu Mar 23 2017 @ 4:27:53 pm Sydney, AU US arrow 6.2 MB 3.85 Mbps 481 kB/s14502135992819Cadence Design historyDZUX8zwp1share history
Thu Mar 23 2017 @ 4:27:19 pm Sydney, AU US arrow 36.3 MB 33.62 Mbps 4.2 MB/s14502135992819Cadence Design history0MAXiqphashare history
Thu Mar 23 2017 @ 3:57:22 pm Sydney, AU US arrow 6.3 MB 4.5 Mbps 563 kB/s14502135992819Cadence Design historywrzlLkuitshare history
Thu Mar 23 2017 @ 3:56:51 pm Sydney, AU US arrow 36.4 MB 33.48 Mbps 4.19 MB/s14502135992819Cadence Design historyzX126CyRmshare history
Thu Mar 23 2017 @ 3:26:56 pm Sydney, AU US arrow 4.9 MB 3.65 Mbps 457 kB/s14502135992819Cadence Design historye70aDnWVvshare history
Thu Mar 23 2017 @ 3:26:23 pm Sydney, AU US arrow 37.6 MB 33.51 Mbps 4.19 MB/s14502135992819Cadence Design historySUsQ4rv0zshare history
Thu Mar 23 2017 @ 2:56:28 pm Sydney, AU US arrow 5 MB 3.63 Mbps 453 kB/s14502135992819Cadence Design historyRIBcoMEvnshare history
Thu Mar 23 2017 @ 2:55:55 pm Sydney, AU US arrow 36.3 MB 29.45 Mbps 3.68 MB/s14502135992819Cadence Design history5Ef9zsn0wshare history
Thu Mar 23 2017 @ 2:26:03 pm Sydney, AU US arrow 5.7 MB 4.9 Mbps 612 kB/s14502135992819Cadence Design historyzNIEjCqxKshare history
Thu Mar 23 2017 @ 2:25:26 pm Sydney, AU US arrow 18.2 MB 14.33 Mbps 1.79 MB/s14502135992819Cadence Design historyFDVKUmuh3share history
Thu Mar 23 2017 @ 1:55:31 pm Sydney, AU US arrow 6.2 MB 3.56 Mbps 445 kB/s14502135992819Cadence Design historyvbRNE5HBqshare history
Thu Mar 23 2017 @ 1:54:52 pm Sydney, AU US arrow 18.1 MB 12.3 Mbps 1.54 MB/s14502135992819Cadence Design historyQ6Cm1TZo5share history
Thu Mar 23 2017 @ 1:24:54 pm Sydney, AU US arrow 6 MB 4.11 Mbps 513 kB/s14502135992819Cadence Design history1i4XP982Qshare history
Thu Mar 23 2017 @ 1:24:19 pm Sydney, AU US arrow 37.3 MB 18.61 Mbps 2.33 MB/s14502135992819Cadence Design history2wsPh5bdnshare history
Thu Mar 23 2017 @ 12:54:16 pm Sydney, AU US arrow 6.2 MB 4.53 Mbps 567 kB/s14502135992819Cadence Design history1b590kDyVshare history
Thu Mar 23 2017 @ 12:53:43 pm Sydney, AU US arrow 36.4 MB 26.19 Mbps 3.27 MB/s14502135992819Cadence Design historyJs7WDNu4Ishare history
Thu Mar 23 2017 @ 12:24:14 pm Sydney, AU US arrow 4.7 MB 6.08 Mbps 761 kB/s14502135992819Cadence Design historyJVcZf7uaUshare history
Thu Mar 23 2017 @ 12:23:43 pm Sydney, AU US arrow 19.1 MB 18.28 Mbps 2.28 MB/s14502135992819Cadence Design historyOxB8kvYozshare history
Thu Mar 23 2017 @ 11:53:52 am Sydney, AU US arrow 6.2 MB 6.15 Mbps 769 kB/s14502135992819Cadence Design historyDC3nsbgG2share history
Thu Mar 23 2017 @ 11:53:11 am Sydney, AU US arrow 38.4 MB 5.85 Mbps 731 kB/s14502135992819Cadence Design historyIsebojPHkshare history
Thu Mar 23 2017 @ 11:22:23 am Sydney, AU US arrow 6.3 MB 11.97 Mbps 1.5 MB/s14502135992819Cadence Design historyrFJz45Vtvshare history
Thu Mar 23 2017 @ 11:21:57 am Sydney, AU US arrow 37.5 MB 19.38 Mbps 2.42 MB/s14502135992819Cadence Design historydiyoKf9Wtshare history
Thu Mar 23 2017 @ 10:51:44 am Sydney, AU US arrow 6.3 MB 13.49 Mbps 1.69 MB/s14502135992819Cadence Design historylGrupF9Cjshare history
Thu Mar 23 2017 @ 10:51:20 am Sydney, AU US arrow 38.8 MB 17.87 Mbps 2.23 MB/s14502135992819Cadence Design historycSuJ5Prlkshare history
Thu Mar 23 2017 @ 10:21:12 am Sydney, AU US arrow 6.2 MB 5.06 Mbps 633 kB/s14502135992819Cadence Design history6KdNqznIwshare history
  
Displaying Internet Speed Test results for Username joeyjoejoe
Speed Test Version 15.9
© 2017 TestMy Net LLC - TestMy.net - Terms & Privacy - Mobile